Time;durP1;ratioP1;P1;durP2;ratioP2;P2;SDS_P1;SDS_P2;PMS_P1;PMS_P2;Temp;Humidity;BMP_temperature;BMP_pressure;BME280_temperature;BME280_humidity;BME280_pressure;Samples;Min_cycle;Max_cycle;Signal;HPM_P1;HPM_P2
2022/09/16 00:02:12;;;;;;;5.23;1.40;;;12.90;37.50;;;;;;8372918;28;20221;-67
2022/09/16 00:06:18;;;;;;;4.40;1.40;;;12.90;12.10;;;;;;8367155;28;20207;-67
2022/09/16 00:10:20;;;;;;;2.80;1.60;;;12.90;1.00;;;;;;8365024;28;20215;-68
2022/09/16 00:14:21;;;;;;;3.37;1.33;;;12.90;7.10;;;;;;8365173;28;20209;-68
2022/09/16 00:18:21;;;;;;;5.87;1.30;;;13.00;1.00;;;;;;8365932;28;20208;-68
2022/09/16 00:22:23;;;;;;;2.50;1.37;;;13.00;1.00;;;;;;8363764;28;20213;-68
2022/09/16 00:26:24;;;;;;;4.03;1.30;;;13.00;1.00;;;;;;8368476;28;20181;-68
2022/09/16 00:30:25;;;;;;;4.33;1.27;;;13.00;1.30;;;;;;8365366;28;20270;-68
2022/09/16 00:34:26;;;;;;;3.60;1.20;;;13.10;1.00;;;;;;8364944;28;20189;-68
2022/09/16 00:38:27;;;;;;;2.07;0.97;;;13.10;1.00;;;;;;8366578;28;20190;-68
2022/09/16 00:42:28;;;;;;;4.50;1.10;;;13.00;6.70;;;;;;8361509;28;20213;-67
2022/09/16 00:46:43;;;;;;;3.33;1.20;;;12.90;12.30;;;;;;8364948;28;20182;-68
2022/09/16 00:50:51;;;;;;;3.37;1.00;;;12.80;99.90;;;;;;8361881;28;20189;-68
2022/09/16 00:54:53;;;;;;;3.47;1.30;;;12.70;99.90;;;;;;8359819;28;20192;-68
2022/09/16 00:59:09;;;;;;;3.23;1.13;;;12.70;99.90;;;;;;8365551;28;20189;-68
2022/09/16 01:03:10;;;;;;;2.50;1.23;;;12.70;99.90;;;;;;8369093;28;20237;-67
2022/09/16 01:07:12;;;;;;;2.97;1.07;;;12.70;99.90;;;;;;8372563;28;20189;-67
2022/09/16 01:11:13;;;;;;;4.53;1.20;;;12.70;99.90;;;;;;8365856;28;20182;-67
2022/09/16 01:15:16;;;;;;;3.07;1.10;;;12.70;99.90;;;;;;8369610;28;20181;-67
2022/09/16 01:19:45;;;;;;;3.37;0.90;;;12.70;99.90;;;;;;8373718;28;20264;-67
2022/09/16 01:24:14;;;;;;;5.43;1.10;;;12.70;99.90;;;;;;8366739;28;20472;-68
2022/09/16 01:28:56;;;;;;;1.80;0.80;;;12.70;99.90;;;;;;8371961;28;20265;-68
2022/09/16 01:33:05;;;;;;;6.60;1.20;;;12.70;99.90;;;;;;8370044;28;20208;-67
2022/09/16 01:37:54;;;;;;;3.93;1.43;;;12.70;99.90;;;;;;8371018;28;20193;-67
2022/09/16 01:42:13;;;;;;;2.60;0.70;;;12.60;99.90;;;;;;8374175;28;20235;-68
2022/09/16 01:46:18;;;;;;;3.60;1.00;;;12.50;99.90;;;;;;8372794;28;20212;-67
2022/09/16 01:50:28;;;;;;;2.17;1.00;;;12.40;1.00;;;;;;8368062;28;20185;-67
2022/09/16 01:54:29;;;;;;;1.77;0.90;;;12.40;1.00;;;;;;8366564;28;20212;-67
2022/09/16 01:59:09;;;;;;;2.53;1.13;;;12.40;1.00;;;;;;8369657;28;20182;-67
2022/09/16 02:03:14;;;;;;;2.97;0.70;;;12.40;1.00;;;;;;8361862;28;20212;-67
2022/09/16 02:07:20;;;;;;;1.63;0.77;;;12.40;99.90;;;;;;8371113;28;20320;-67
2022/09/16 02:11:21;;;;;;;2.70;0.80;;;12.40;1.00;;;;;;8369335;28;20178;-68
2022/09/16 02:15:25;;;;;;;2.73;0.80;;;12.50;99.90;;;;;;8365053;28;20246;-68
2022/09/16 02:19:35;;;;;;;1.63;0.63;;;12.50;99.90;;;;;;8364829;28;20201;-67
2022/09/16 02:23:50;;;;;;;1.77;0.70;;;12.50;1.00;;;;;;8369612;28;20325;-67
2022/09/16 02:27:52;;;;;;;5.63;1.20;;;12.50;1.00;;;;;;8371272;28;20178;-67
2022/09/16 02:31:56;;;;;;;3.10;1.23;;;12.40;8.80;;;;;;8375274;28;20193;-67
2022/09/16 02:36:01;;;;;;;1.70;0.77;;;12.40;99.90;;;;;;8366268;28;20177;-67
2022/09/16 02:40:09;;;;;;;2.97;1.10;;;12.40;99.90;;;;;;8369971;28;20185;-68
2022/09/16 02:44:11;;;;;;;4.97;1.10;;;12.30;1.00;;;;;;8366478;28;20264;-67
2022/09/16 02:48:26;;;;;;;2.90;1.23;;;12.30;65.90;;;;;;8369660;28;20261;-67
2022/09/16 02:52:45;;;;;;;3.67;1.20;;;12.20;99.90;;;;;;8368456;28;20189;-67
2022/09/16 02:56:46;;;;;;;3.70;1.40;;;12.10;51.60;;;;;;8371329;28;20197;-67
2022/09/16 03:00:51;;;;;;;1.63;1.00;;;12.10;1.00;;;;;;8367893;28;20205;-69
2022/09/16 03:04:51;;;;;;;1.60;1.20;;;12.10;93.70;;;;;;8366857;28;20715;-68
2022/09/16 03:08:57;;;;;;;3.60;1.50;;;12.10;99.90;;;;;;8366559;28;20228;-68
2022/09/16 03:13:27;;;;;;;2.83;1.70;;;12.10;99.90;;;;;;8367828;28;20197;-67
2022/09/16 03:17:49;;;;;;;2.43;1.53;;;12.00;1.00;;;;;;8382118;28;20589;-68
2022/09/16 03:21:59;;;;;;;4.47;1.90;;;12.00;99.90;;;;;;8363763;28;20268;-68
2022/09/16 03:26:39;;;;;;;4.13;1.73;;;12.00;99.90;;;;;;8367382;28;20246;-67
2022/09/16 03:30:53;;;;;;;3.30;1.83;;;11.90;1.00;;;;;;8351597;28;20194;-68
2022/09/16 03:35:22;;;;;;;4.03;1.83;;;11.80;1.00;;;;;;8363630;28;20288;-68
2022/09/16 03:39:22;;;;;;;2.93;1.60;;;11.70;1.00;;;;;;8363946;28;20214;-68
2022/09/16 03:43:23;;;;;;;3.87;1.60;;;11.70;77.80;;;;;;8365240;28;20250;-67
2022/09/16 03:47:24;;;;;;;1.90;1.77;;;11.60;42.70;;;;;;8368068;28;20185;-67
2022/09/16 03:51:26;;;;;;;2.13;1.57;;;11.50;99.90;;;;;;8363956;28;20180;-67
2022/09/16 03:55:27;;;;;;;2.87;1.90;;;11.40;99.90;;;;;;8369192;28;20236;-67
2022/09/16 03:59:28;;;;;;;4.10;2.10;;;11.40;99.90;;;;;;8364841;28;20262;-67
2022/09/16 04:03:30;;;;;;;4.60;2.33;;;11.30;1.00;;;;;;8364622;28;20216;-67
2022/09/16 04:07:34;;;;;;;4.50;2.33;;;11.20;1.00;;;;;;8361370;28;20298;-67
2022/09/16 04:11:35;;;;;;;5.50;2.67;;;11.10;85.50;;;;;;8364138;28;20242;-67
2022/09/16 04:15:37;;;;;;;2.17;1.97;;;11.10;99.90;;;;;;8362981;28;20189;-68
2022/09/16 04:19:38;;;;;;;6.03;2.27;;;11.00;99.90;;;;;;8368764;28;20215;-67
2022/09/16 04:23:39;;;;;;;2.20;2.00;;;11.00;99.90;;;;;;8368983;28;20215;-67
2022/09/16 04:27:40;;;;;;;3.77;1.87;;;10.90;99.90;;;;;;8365614;28;20275;-67
2022/09/16 04:31:41;;;;;;;3.17;1.70;;;10.90;99.90;;;;;;8361476;28;20195;-67
2022/09/16 04:35:42;;;;;;;2.03;1.70;;;10.90;99.90;;;;;;8364718;28;20188;-67
2022/09/16 04:39:43;;;;;;;3.93;2.30;;;10.90;99.90;;;;;;8364902;28;20233;-68
2022/09/16 04:43:45;;;;;;;5.43;2.40;;;10.90;99.90;;;;;;8365326;28;20211;-68
2022/09/16 04:47:45;;;;;;;3.93;2.53;;;11.00;99.90;;;;;;8367329;28;20408;-68
2022/09/16 04:51:47;;;;;;;4.07;2.07;;;11.00;99.90;;;;;;8365500;28;20274;-68
2022/09/16 04:55:48;;;;;;;3.37;2.43;;;11.00;99.90;;;;;;8368091;28;20210;-68
2022/09/16 04:59:49;;;;;;;7.27;2.30;;;11.10;99.90;;;;;;8360986;28;20531;-71
2022/09/16 05:03:52;;;;;;;6.57;2.67;;;11.30;95.80;;;;;;8363321;28;20559;-68
2022/09/16 05:07:53;;;;;;;3.83;2.57;;;11.40;1.00;;;;;;8367332;28;20184;-68
2022/09/16 05:11:53;;;;;;;3.67;2.57;;;11.50;1.00;;;;;;8362553;28;20220;-69
2022/09/16 05:15:54;;;;;;;2.50;2.30;;;11.70;99.90;;;;;;8364495;28;20184;-68
2022/09/16 05:19:55;;;;;;;5.33;2.60;;;11.90;1.00;;;;;;8366614;28;20265;-68
2022/09/16 05:24:00;;;;;;;4.97;2.70;;;12.00;99.90;;;;;;8363498;28;20217;-69
2022/09/16 05:28:01;;;;;;;6.47;2.57;;;12.20;99.90;;;;;;8360992;28;20233;-68
2022/09/16 05:32:02;;;;;;;4.97;2.53;;;12.30;99.90;;;;;;8362836;28;20190;-68
2022/09/16 05:36:08;;;;;;;4.10;2.60;;;12.50;1.00;;;;;;8364807;28;20190;-69
2022/09/16 05:40:09;;;;;;;2.97;2.70;;;12.70;99.90;;;;;;8360902;28;20201;-69
2022/09/16 05:44:10;;;;;;;3.23;2.60;;;12.70;99.90;;;;;;8363523;28;20178;-68
2022/09/16 05:48:10;;;;;;;4.73;2.93;;;12.80;99.90;;;;;;8367411;28;20173;-69
2022/09/16 05:52:11;;;;;;;2.53;2.33;;;12.80;99.90;;;;;;8368823;28;20190;-69
2022/09/16 05:56:15;;;;;;;3.90;2.73;;;12.80;99.90;;;;;;8364709;28;20192;-68
2022/09/16 06:00:16;;;;;;;2.70;2.50;;;12.80;99.90;;;;;;8372381;28;20182;-69
2022/09/16 06:04:17;;;;;;;3.07;2.17;;;12.80;99.90;;;;;;8368445;28;20185;-68
2022/09/16 06:08:17;;;;;;;3.57;1.70;;;12.90;99.90;;;;;;8375885;28;20224;-68
2022/09/16 06:12:18;;;;;;;3.53;1.60;;;12.80;1.00;;;;;;8365017;28;20208;-67
2022/09/16 06:16:19;;;;;;;3.37;1.33;;;12.80;72.80;;;;;;8370010;28;20185;-68
2022/09/16 06:20:20;;;;;;;5.20;1.23;;;12.90;1.00;;;;;;8370580;28;20240;-68
2022/09/16 06:24:21;;;;;;;2.83;1.20;;;13.10;1.00;;;;;;8365048;28;20196;-68
2022/09/16 06:28:22;;;;;;;2.20;1.00;;;13.30;1.00;;;;;;8368614;28;20181;-69
2022/09/16 06:32:23;;;;;;;4.53;1.03;;;13.40;1.00;;;;;;8370080;28;20185;-69
2022/09/16 06:36:27;;;;;;;4.10;0.90;;;13.40;99.90;;;;;;8383960;28;20182;-69
2022/09/16 06:40:28;;;;;;;3.20;0.90;;;13.40;99.90;;;;;;8367904;28;20202;-68
2022/09/16 06:44:29;;;;;;;2.33;1.00;;;13.30;99.90;;;;;;8366204;28;20475;-68
2022/09/16 06:48:32;;;;;;;4.03;0.70;;;13.30;99.90;;;;;;8368620;28;20193;-68
2022/09/16 06:52:34;;;;;;;3.17;1.40;;;13.20;99.90;;;;;;8362860;28;20190;-68
2022/09/16 06:56:36;;;;;;;3.00;1.23;;;13.30;99.90;;;;;;8367263;28;20189;-68
2022/09/16 07:00:37;;;;;;;2.80;1.00;;;13.30;99.90;;;;;;8364352;28;20205;-68
2022/09/16 07:04:38;;;;;;;1.57;0.70;;;13.60;99.90;;;;;;8365861;28;20186;-68
2022/09/16 07:08:39;;;;;;;3.77;0.87;;;13.60;99.90;;;;;;8357881;28;20212;-69
2022/09/16 07:12:40;;;;;;;2.20;0.83;;;13.70;99.90;;;;;;8371817;28;20213;-69
2022/09/16 07:16:41;;;;;;;2.10;0.70;;;13.90;99.90;;;;;;8365880;28;20196;-68
2022/09/16 07:20:42;;;;;;;8.23;1.10;;;14.00;99.90;;;;;;8364496;28;20236;-68
2022/09/16 07:24:44;;;;;;;3.87;1.50;;;13.90;99.90;;;;;;8369464;28;20193;-68
2022/09/16 07:28:48;;;;;;;3.73;1.30;;;13.80;99.90;;;;;;8360998;28;20186;-68
2022/09/16 07:32:48;;;;;;;3.90;1.20;;;13.80;99.90;;;;;;8366090;28;20197;-68
2022/09/16 07:36:50;;;;;;;3.43;1.17;;;13.80;99.90;;;;;;8363286;28;20197;-69
2022/09/16 07:40:51;;;;;;;3.30;1.00;;;13.70;99.90;;;;;;8367582;28;20217;-69
2022/09/16 07:44:51;;;;;;;2.83;1.37;;;13.60;99.90;;;;;;8362199;28;20230;-69
2022/09/16 07:48:53;;;;;;;4.23;1.43;;;13.70;99.90;;;;;;8366645;28;20181;-69
2022/09/16 07:52:54;;;;;;;2.33;1.43;;;13.80;99.90;;;;;;8366064;28;20186;-69
2022/09/16 07:56:56;;;;;;;2.50;1.43;;;13.90;99.90;;;;;;8365816;28;20196;-68
2022/09/16 08:00:58;;;;;;;3.07;1.07;;;14.20;99.90;;;;;;8365437;28;20201;-69
2022/09/16 08:04:59;;;;;;;3.43;1.00;;;14.80;99.90;;;;;;8360047;28;20190;-69
2022/09/16 08:09:01;;;;;;;2.17;0.87;;;15.00;99.90;;;;;;8366137;28;20272;-73
2022/09/16 08:13:03;;;;;;;2.97;0.93;;;14.90;96.80;;;;;;8363757;28;20204;-68
2022/09/16 08:17:04;;;;;;;3.37;0.93;;;14.70;88.00;;;;;;8372843;28;20197;-68
2022/09/16 08:21:07;;;;;;;2.83;0.77;;;14.90;45.60;;;;;;8364877;28;20232;-69
2022/09/16 08:25:08;;;;;;;4.17;0.70;;;15.20;37.10;;;;;;8366437;28;20177;-68
2022/09/16 08:29:08;;;;;;;3.93;0.87;;;15.50;11.50;;;;;;8361017;28;20186;-69
2022/09/16 08:33:09;;;;;;;4.73;0.90;;;15.50;5.50;;;;;;8360285;28;20520;-68
2022/09/16 08:37:10;;;;;;;1.53;0.70;;;14.90;8.70;;;;;;8365248;28;20307;-69
2022/09/16 08:41:26;;;;;;;3.40;0.60;;;14.70;46.00;;;;;;8363172;28;20210;-68
2022/09/16 08:45:52;;;;;;;2.33;0.87;;;14.30;49.00;;;;;;8362055;28;20377;-68
2022/09/16 08:49:55;;;;;;;5.93;0.93;;;14.20;82.80;;;;;;8364383;28;20195;-69
2022/09/16 08:54:14;;;;;;;4.30;0.77;;;14.50;99.90;;;;;;8361862;28;20193;-68
2022/09/16 08:58:17;;;;;;;1.63;0.60;;;15.10;19.10;;;;;;8364612;28;20185;-69
2022/09/16 09:02:30;;;;;;;1.63;0.60;;;15.40;47.10;;;;;;8366452;28;20209;-70
2022/09/16 09:06:45;;;;;;;2.33;0.60;;;15.70;1.00;;;;;;8365491;28;20293;-69
2022/09/16 09:10:56;;;;;;;3.53;0.70;;;15.90;19.70;;;;;;8362908;28;20221;-68
2022/09/16 09:15:25;;;;;;;2.67;0.60;;;16.20;1.00;;;;;;8361785;28;20277;-68
2022/09/16 09:19:30;;;;;;;2.77;0.67;;;16.60;1.00;;;;;;8367687;28;20292;-68
2022/09/16 09:23:51;;;;;;;2.43;0.70;;;15.60;1.00;;;;;;8369123;28;20208;-67
2022/09/16 09:28:29;;;;;;;1.17;0.60;;;15.40;1.00;;;;;;8372478;28;20220;-67
2022/09/16 09:33:01;;;;;;;1.40;0.50;;;15.50;1.00;;;;;;8373865;28;20261;-67
2022/09/16 09:37:29;;;;;;;2.50;0.70;;;15.60;1.00;;;;;;8369961;28;20200;-67
2022/09/16 09:41:54;;;;;;;1.73;0.67;;;15.40;1.00;;;;;;8365744;28;20217;-67
2022/09/16 09:46:12;;;;;;;2.53;0.60;;;15.20;1.00;;;;;;8370573;28;20185;-66
2022/09/16 09:50:27;;;;;;;2.03;0.63;;;15.10;1.00;;;;;;8371474;28;20192;-68
2022/09/16 09:54:30;;;;;;;3.47;0.40;;;15.20;1.00;;;;;;8382707;28;20187;-68
2022/09/16 09:58:57;;;;;;;2.33;0.53;;;15.20;1.00;;;;;;8369843;28;20193;-66
2022/09/16 10:03:11;;;;;;;1.47;0.47;;;15.30;1.30;;;;;;8370338;28;20216;-66
2022/09/16 10:07:14;;;;;;;3.73;0.90;;;15.30;1.00;;;;;;8368825;28;20182;-68
2022/09/16 10:11:26;;;;;;;1.47;0.50;;;15.30;1.00;;;;;;8374275;28;20249;-68
2022/09/16 10:15:30;;;;;;;0.93;0.43;;;15.80;1.00;;;;;;8365356;28;20190;-68
2022/09/16 10:19:37;;;;;;;2.40;0.50;;;16.30;1.00;;;;;;8365781;28;20613;-69
2022/09/16 10:23:39;;;;;;;2.93;0.70;;;16.90;1.00;;;;;;8362693;28;20281;-68
2022/09/16 10:27:39;;;;;;;4.30;0.60;;;17.50;1.00;;;;;;8364136;28;20186;-68
2022/09/16 10:31:41;;;;;;;0.90;0.30;;;17.60;1.00;;;;;;8370938;28;20215;-69
2022/09/16 10:36:10;;;;;;;0.93;0.30;;;17.60;1.00;;;;;;8369444;28;20197;-68
2022/09/16 10:40:16;;;;;;;1.70;0.50;;;17.70;1.00;;;;;;8369254;28;20276;-68
2022/09/16 10:44:20;;;;;;;2.37;0.47;;;17.70;1.00;;;;;;8370742;28;20299;-68
2022/09/16 10:48:28;;;;;;;3.40;0.53;;;17.90;1.00;;;;;;8364288;28;20244;-67
2022/09/16 10:52:31;;;;;;;3.87;0.40;;;17.80;1.00;;;;;;8372142;28;20185;-69
2022/09/16 10:56:54;;;;;;;2.77;0.50;;;17.60;1.00;;;;;;8363521;28;20246;-67
2022/09/16 11:01:06;;;;;;;1.63;0.50;;;17.30;1.00;;;;;;8365502;28;20209;-68
2022/09/16 11:05:30;;;;;;;2.10;0.50;;;16.60;1.00;;;;;;8363618;28;20178;-68
2022/09/16 11:09:37;;;;;;;2.73;0.50;;;16.80;1.00;;;;;;8374827;28;20237;-67
2022/09/16 11:13:40;;;;;;;1.60;0.40;;;17.20;1.00;;;;;;8381317;28;20205;-67
2022/09/16 11:17:55;;;;;;;1.37;0.50;;;17.70;1.00;;;;;;8365981;28;20390;-67
2022/09/16 11:22:29;;;;;;;2.00;0.50;;;17.80;1.00;;;;;;8363143;28;20240;-67
2022/09/16 11:26:57;;;;;;;1.93;0.30;;;17.60;1.00;;;;;;8365811;28;20181;-67
2022/09/16 11:31:42;;;;;;;3.47;0.60;;;17.80;1.00;;;;;;8366293;28;20189;-67
2022/09/16 11:35:56;;;;;;;1.47;0.43;;;17.30;1.00;;;;;;8344429;28;20280;-67
2022/09/16 11:40:22;;;;;;;1.43;0.67;;;15.90;1.00;;;;;;8353607;28;20326;-66
2022/09/16 11:44:40;;;;;;;1.20;0.57;;;13.90;99.90;;;;;;8367612;28;20242;-66
2022/09/16 11:48:47;;;;;;;1.13;0.60;;;13.10;1.00;;;;;;8363979;28;20268;-66
2022/09/16 11:53:20;;;;;;;1.10;0.60;;;13.10;1.00;;;;;;8363953;28;20262;-66
2022/09/16 11:57:28;;;;;;;0.93;0.40;;;13.50;1.00;;;;;;8365431;28;20252;-68
2022/09/16 12:01:50;;;;;;;5.33;0.80;;;13.90;1.00;;;;;;8363398;28;20209;-67
2022/09/16 12:06:06;;;;;;;0.67;0.50;;;14.20;1.00;;;;;;8367099;28;20175;-67
2022/09/16 12:10:20;;;;;;;1.87;0.40;;;14.60;1.00;;;;;;8364864;28;20232;-68
2022/09/16 12:14:48;;;;;;;0.97;0.40;;;14.90;1.00;;;;;;8371677;28;20293;-68
2022/09/16 12:18:56;;;;;;;1.53;0.40;;;15.00;1.00;;;;;;8365803;28;20206;-67
2022/09/16 12:23:18;;;;;;;1.67;0.33;;;15.20;1.00;;;;;;8363451;28;20209;-67
2022/09/16 12:27:51;;;;;;;0.70;0.40;;;15.30;99.90;;;;;;8364570;28;20258;-67
2022/09/16 12:31:58;;;;;;;0.90;0.43;;;15.20;99.90;;;;;;8375043;28;20203;-68
2022/09/16 12:36:26;;;;;;;2.63;0.40;;;15.30;99.90;;;;;;8370648;28;20190;-68
2022/09/16 12:40:50;;;;;;;1.03;0.40;;;15.50;99.90;;;;;;8359194;28;20189;-67
2022/09/16 12:45:10;;;;;;;1.27;0.40;;;15.60;99.90;;;;;;8360505;28;20198;-67
2022/09/16 12:49:52;;;;;;;1.33;0.20;;;15.70;99.90;;;;;;8370104;28;20595;-69
2022/09/16 12:53:53;;;;;;;0.60;0.30;;;15.80;89.40;;;;;;8362258;28;20205;-68
2022/09/16 12:58:32;;;;;;;1.70;0.40;;;15.70;99.90;;;;;;8364566;28;20185;-67
2022/09/16 13:02:50;;;;;;;0.70;0.30;;;15.30;99.90;;;;;;8360758;28;20221;-67
2022/09/16 13:06:54;;;;;;;1.17;0.20;;;14.90;99.90;;;;;;8365746;28;20182;-68
2022/09/16 13:11:13;;;;;;;0.53;0.43;;;14.40;99.90;;;;;;8366474;28;20181;-68
2022/09/16 13:15:33;;;;;;;0.93;0.40;;;14.00;99.90;;;;;;8364921;28;20205;-66
2022/09/16 13:19:40;;;;;;;0.67;0.40;;;13.80;1.00;;;;;;8364321;28;20201;-68
2022/09/16 13:23:46;;;;;;;0.90;0.47;;;13.70;1.00;;;;;;8364827;28;20221;-66
2022/09/16 13:28:02;;;;;;;1.47;0.30;;;13.80;1.00;;;;;;8364234;28;20189;-68
2022/09/16 13:32:42;;;;;;;1.77;0.50;;;13.90;84.60;;;;;;8357807;28;20190;-66
2022/09/16 13:36:43;;;;;;;0.97;0.50;;;14.10;1.00;;;;;;8368481;28;20204;-68
2022/09/16 13:40:58;;;;;;;1.20;0.50;;;14.50;30.00;;;;;;8365601;28;20186;-69
2022/09/16 13:44:59;;;;;;;0.97;0.50;;;14.90;1.00;;;;;;8365841;28;20181;-68
2022/09/16 13:49:03;;;;;;;2.03;0.80;;;15.10;99.90;;;;;;8363254;28;20182;-68
2022/09/16 13:53:28;;;;;;;2.53;0.50;;;15.30;99.90;;;;;;8365360;28;20185;-68
2022/09/16 13:57:41;;;;;;;1.07;0.53;;;15.50;99.90;;;;;;8379034;28;20193;-68
2022/09/16 14:02:19;;;;;;;4.30;0.90;;;15.70;99.90;;;;;;8362877;28;20272;-68
2022/09/16 14:06:47;;;;;;;1.73;0.50;;;16.00;99.90;;;;;;8358719;28;20173;-68
2022/09/16 14:11:07;;;;;;;1.07;0.40;;;15.90;99.90;;;;;;8368498;28;20280;-68
2022/09/16 14:15:08;;;;;;;2.30;0.40;;;15.90;99.90;;;;;;8367314;28;20248;-68
2022/09/16 14:19:15;;;;;;;0.97;0.50;;;15.90;99.90;;;;;;8373057;28;20204;-68
2022/09/16 14:23:17;;;;;;;0.43;0.20;;;16.00;99.90;;;;;;8362583;28;20218;-68
2022/09/16 14:27:38;;;;;;;1.77;0.20;;;15.90;99.90;;;;;;8370911;28;20186;-67
2022/09/16 14:31:44;;;;;;;1.03;0.20;;;15.80;99.90;;;;;;8369321;28;20186;-68
2022/09/16 14:35:47;;;;;;;1.10;0.10;;;15.60;1.00;;;;;;8367032;28;20194;-68
2022/09/16 14:39:50;;;;;;;0.83;0.20;;;15.40;1.00;;;;;;8368209;28;20281;-68
2022/09/16 14:43:52;;;;;;;0.50;0.10;;;15.20;2.80;;;;;;8364137;28;20210;-69
2022/09/16 14:47:55;;;;;;;0.83;0.20;;;15.20;1.00;;;;;;8384495;28;20181;-68
2022/09/16 14:52:05;;;;;;;0.27;0.10;;;15.20;1.00;;;;;;8369880;28;20189;-68
2022/09/16 14:56:28;;;;;;;0.27;0.10;;;15.20;1.00;;;;;;8375336;28;20216;-67
2022/09/16 15:00:36;;;;;;;0.50;0.10;;;15.20;1.00;;;;;;8366045;28;20192;-68
2022/09/16 15:04:39;;;;;;;0.50;0.20;;;15.10;1.00;;;;;;8370508;28;20299;-68
2022/09/16 15:08:48;;;;;;;0.83;0.27;;;15.10;1.00;;;;;;8367180;28;20181;-68
2022/09/16 15:13:02;;;;;;;0.30;0.10;;;15.10;1.00;;;;;;8363701;28;20233;-67
2022/09/16 15:17:03;;;;;;;0.30;0.20;;;15.10;1.00;;;;;;8366765;28;20212;-69
2022/09/16 15:21:21;;;;;;;0.30;0.20;;;15.10;1.00;;;;;;8362989;28;20214;-68
2022/09/16 15:25:28;;;;;;;1.37;0.30;;;15.00;1.00;;;;;;8366036;28;20188;-68
2022/09/16 15:29:37;;;;;;;1.70;0.40;;;14.70;1.80;;;;;;8366137;28;20196;-68
2022/09/16 15:33:41;;;;;;;0.93;0.30;;;14.40;12.60;;;;;;8363041;28;20182;-68
2022/09/16 15:37:42;;;;;;;0.30;0.20;;;14.30;38.00;;;;;;8361540;28;20193;-68
2022/09/16 15:41:46;;;;;;;1.10;0.30;;;14.30;64.30;;;;;;8365614;28;20240;-68
2022/09/16 15:46:01;;;;;;;0.70;0.37;;;14.20;71.10;;;;;;8366081;28;20193;-67
2022/09/16 15:50:11;;;;;;;0.83;0.20;;;14.20;43.20;;;;;;8374939;28;20274;-68
2022/09/16 15:54:23;;;;;;;2.43;0.40;;;14.20;94.10;;;;;;8360902;28;20193;-69
2022/09/16 15:58:40;;;;;;;0.83;0.30;;;14.40;99.90;;;;;;8364872;28;20189;-68
2022/09/16 16:02:52;;;;;;;0.77;0.40;;;14.50;31.90;;;;;;8366490;28;20214;-69
2022/09/16 16:07:04;;;;;;;0.60;0.30;;;14.60;34.00;;;;;;8366176;28;20191;-68
2022/09/16 16:11:08;;;;;;;0.50;0.37;;;14.60;39.40;;;;;;8363900;28;20186;-70
2022/09/16 16:15:09;;;;;;;1.77;0.40;;;14.50;80.40;;;;;;8370207;28;20193;-68
2022/09/16 16:19:10;;;;;;;0.73;0.30;;;14.30;95.00;;;;;;8366396;28;20296;-69
2022/09/16 16:23:11;;;;;;;1.47;0.20;;;14.20;99.90;;;;;;8362673;28;20210;-67
2022/09/16 16:27:12;;;;;;;0.30;0.20;;;14.00;99.90;;;;;;8363026;28;20254;-68
2022/09/16 16:31:17;;;;;;;0.83;0.30;;;13.80;99.90;;;;;;8362679;28;20185;-68
2022/09/16 16:35:18;;;;;;;0.70;0.30;;;13.60;99.90;;;;;;8371924;28;20192;-68
2022/09/16 16:39:21;;;;;;;1.43;0.30;;;13.40;99.90;;;;;;8364941;28;20205;-68
2022/09/16 16:43:22;;;;;;;1.03;0.47;;;13.30;99.90;;;;;;8365396;28;20209;-67
2022/09/16 16:47:23;;;;;;;1.03;0.40;;;13.10;99.90;;;;;;8362058;28;20193;-74
2022/09/16 16:51:24;;;;;;;1.33;0.47;;;12.90;99.90;;;;;;8367206;28;20190;-67
2022/09/16 16:55:25;;;;;;;0.50;0.30;;;12.60;99.90;;;;;;8370955;28;20612;-67
2022/09/16 16:59:29;;;;;;;3.30;0.50;;;12.40;99.90;;;;;;8364237;28;20197;-67
2022/09/16 17:03:29;;;;;;;0.50;0.20;;;12.30;99.90;;;;;;8362931;28;20293;-67
2022/09/16 17:07:30;;;;;;;0.60;0.30;;;12.00;99.90;;;;;;8363520;28;20185;-68
2022/09/16 17:11:32;;;;;;;0.80;0.50;;;11.90;99.90;;;;;;8366533;28;20323;-68
2022/09/16 17:15:33;;;;;;;0.80;0.50;;;11.70;1.00;;;;;;8365241;28;20190;-68
2022/09/16 17:19:34;;;;;;;2.10;0.57;;;11.60;1.00;;;;;;8363681;28;20288;-67
2022/09/16 17:23:38;;;;;;;1.43;0.60;;;11.40;1.00;;;;;;8365243;28;20216;-68
2022/09/16 17:27:39;;;;;;;1.47;0.70;;;11.30;1.00;;;;;;8364486;28;20188;-67
2022/09/16 17:31:40;;;;;;;1.93;0.97;;;11.20;54.50;;;;;;8366373;28;20198;-67
2022/09/16 17:35:42;;;;;;;1.20;0.93;;;11.10;99.90;;;;;;8361818;28;20254;-67
2022/09/16 17:39:43;;;;;;;1.57;1.10;;;11.00;99.90;;;;;;8364234;28;20197;-68
2022/09/16 17:43:44;;;;;;;2.13;0.93;;;10.90;99.90;;;;;;8364872;28;20223;-67
2022/09/16 17:47:45;;;;;;;3.90;1.30;;;10.80;99.90;;;;;;8369453;28;20191;-67
2022/09/16 17:51:46;;;;;;;1.77;1.17;;;10.70;99.90;;;;;;8367334;28;20190;-67
2022/09/16 17:55:48;;;;;;;1.40;1.30;;;10.60;99.90;;;;;;8369313;28;20212;-67
2022/09/16 17:59:49;;;;;;;4.23;1.33;;;10.60;1.00;;;;;;8367066;28;20283;-67
2022/09/16 18:03:52;;;;;;;2.23;1.47;;;10.50;1.00;;;;;;8372449;28;20212;-67
2022/09/16 18:07:53;;;;;;;2.33;1.47;;;10.40;1.00;;;;;;8366794;28;20192;-67
2022/09/16 18:11:53;;;;;;;2.07;1.50;;;10.30;1.00;;;;;;8368577;28;20222;-67
2022/09/16 18:15:55;;;;;;;2.50;1.53;;;10.20;1.00;;;;;;8367189;28;20432;-67
2022/09/16 18:19:55;;;;;;;1.40;1.30;;;10.20;99.90;;;;;;8370275;28;20206;-67
2022/09/16 18:23:59;;;;;;;3.07;1.33;;;10.10;99.90;;;;;;8365623;28;20294;-67
2022/09/16 18:28:00;;;;;;;1.53;1.23;;;10.00;99.90;;;;;;8367985;28;20187;-67
2022/09/16 18:32:01;;;;;;;3.00;1.67;;;10.00;99.90;;;;;;8367444;28;20178;-67
2022/09/16 18:36:04;;;;;;;2.17;1.70;;;9.90;1.00;;;;;;8370046;28;20190;-67
2022/09/16 18:40:06;;;;;;;1.90;1.70;;;9.90;1.00;;;;;;8373037;28;20186;-67
2022/09/16 18:44:16;;;;;;;2.20;1.60;;;9.90;99.90;;;;;;8365698;28;20305;-67
2022/09/16 18:48:17;;;;;;;2.10;1.60;;;9.90;98.20;;;;;;8365849;28;20194;-67
2022/09/16 18:52:18;;;;;;;1.67;1.47;;;9.90;8.10;;;;;;8367825;28;20193;-68
2022/09/16 18:56:21;;;;;;;2.27;1.60;;;9.90;1.00;;;;;;8360946;28;20213;-69
2022/09/16 19:00:21;;;;;;;1.57;1.33;;;9.90;1.00;;;;;;8371742;28;20309;-67
2022/09/16 19:04:25;;;;;;;2.10;1.40;;;9.90;1.00;;;;;;8365858;28;20222;-67
2022/09/16 19:08:26;;;;;;;2.20;1.60;;;9.80;1.00;;;;;;8366603;28;20268;-68
2022/09/16 19:12:27;;;;;;;3.53;1.50;;;9.70;1.00;;;;;;8366461;28;20212;-67
2022/09/16 19:16:31;;;;;;;2.97;1.93;;;9.70;14.00;;;;;;8370486;28;20193;-67
2022/09/16 19:20:32;;;;;;;2.70;1.80;;;9.70;99.90;;;;;;8369464;28;20208;-68
2022/09/16 19:24:33;;;;;;;3.43;1.60;;;9.70;99.90;;;;;;8365915;28;20275;-66
2022/09/16 19:28:34;;;;;;;1.77;1.50;;;9.70;99.90;;;;;;8365970;28;20231;-66
2022/09/16 19:32:35;;;;;;;2.47;2.27;;;9.70;99.90;;;;;;8360226;28;20305;-66
2022/09/16 19:36:37;;;;;;;2.97;2.00;;;9.80;99.90;;;;;;8367328;28;20217;-66
2022/09/16 19:40:38;;;;;;;3.13;1.53;;;9.80;99.90;;;;;;8362995;28;20193;-67
2022/09/16 19:44:39;;;;;;;3.77;2.10;;;9.80;99.90;;;;;;8364429;28;20220;-67
2022/09/16 19:48:43;;;;;;;2.03;1.50;;;9.70;99.90;;;;;;8366330;28;20180;-67
2022/09/16 19:52:43;;;;;;;1.87;1.50;;;9.70;99.90;;;;;;8364469;28;20223;-67
2022/09/16 19:56:48;;;;;;;2.00;1.50;;;9.70;1.00;;;;;;8367034;28;20193;-69
2022/09/16 20:00:50;;;;;;;1.63;1.43;;;9.80;1.00;;;;;;8370002;28;20271;-68
2022/09/16 20:04:51;;;;;;;2.40;1.77;;;9.70;99.90;;;;;;8366445;28;20269;-68
2022/09/16 20:08:58;;;;;;;1.97;1.40;;;9.80;1.00;;;;;;8367473;28;20194;-68
2022/09/16 20:12:59;;;;;;;2.97;2.00;;;9.80;99.90;;;;;;8363063;28;20230;-68
2022/09/16 20:17:00;;;;;;;2.20;1.70;;;9.80;99.90;;;;;;8368577;28;20634;-67
2022/09/16 20:21:06;;;;;;;3.50;2.10;;;9.80;99.90;;;;;;8364375;28;20210;-68
2022/09/16 20:25:07;;;;;;;3.23;2.07;;;9.80;99.90;;;;;;8364055;28;20173;-68
2022/09/16 20:29:08;;;;;;;3.37;1.93;;;9.80;99.90;;;;;;8364205;28;20381;-67
2022/09/16 20:33:09;;;;;;;5.93;2.00;;;9.70;99.90;;;;;;8365800;28;20197;-67
2022/09/16 20:37:10;;;;;;;3.03;1.93;;;9.70;99.90;;;;;;8363520;28;20193;-68
2022/09/16 20:41:13;;;;;;;4.53;1.77;;;9.60;1.00;;;;;;8363218;28;20201;-67
2022/09/16 20:45:13;;;;;;;3.87;1.63;;;9.50;1.00;;;;;;8361033;28;20206;-68
2022/09/16 20:49:16;;;;;;;4.60;1.77;;;9.50;1.00;;;;;;8366409;28;20195;-67
2022/09/16 20:53:17;;;;;;;2.10;1.87;;;9.50;90.90;;;;;;8362596;28;20189;-68
2022/09/16 20:57:19;;;;;;;2.43;1.90;;;9.50;99.90;;;;;;8368244;28;20367;-68
2022/09/16 21:01:24;;;;;;;1.77;1.63;;;9.50;97.00;;;;;;8370852;28;20208;-68
2022/09/16 21:05:25;;;;;;;3.10;1.77;;;9.60;76.00;;;;;;8362009;28;20182;-68
2022/09/16 21:09:26;;;;;;;2.03;1.70;;;9.60;1.00;;;;;;8369417;28;20178;-67
2022/09/16 21:13:26;;;;;;;2.73;2.03;;;9.60;1.00;;;;;;8360135;28;20208;-67
2022/09/16 21:17:30;;;;;;;2.30;1.90;;;9.60;1.00;;;;;;8367265;28;20201;-67
2022/09/16 21:21:31;;;;;;;3.87;1.60;;;9.60;1.00;;;;;;8368539;28;20199;-67
2022/09/16 21:25:32;;;;;;;2.53;1.70;;;9.50;1.00;;;;;;8365060;28;20192;-67
2022/09/16 21:29:33;;;;;;;3.17;1.70;;;9.50;35.10;;;;;;8372890;28;20559;-67
2022/09/16 21:33:35;;;;;;;2.63;1.90;;;9.50;18.10;;;;;;8366868;28;20278;-68
2022/09/16 21:37:36;;;;;;;5.57;1.80;;;9.50;1.00;;;;;;8384314;28;20186;-67